Time;durP1;ratioP1;P1;durP2;ratioP2;P2;SDS_P1;SDS_P2;PMS_P1;PMS_P2;Temp;Humidity;BMP_temperature;BMP_pressure;BME280_temperature;BME280_humidity;BME280_pressure;Samples;Min_cycle;Max_cycle;Signal;HPM_P1;HPM_P2
2021/11/24 00:09:07;;;;;;;41.10;13.85;;;5.20;99.90;;;;;;6701861;88;20223;-79
2021/11/24 00:19:08;;;;;;;32.35;14.00;;;5.10;99.90;;;;;;6698577;88;20211;-79
2021/11/24 00:29:09;;;;;;;32.83;13.70;;;5.10;99.90;;;;;;6700301;88;20501;-79
2021/11/24 00:39:10;;;;;;;36.15;13.52;;;5.10;99.90;;;;;;6698256;88;20893;-80
2021/11/24 00:49:10;;;;;;;33.33;14.82;;;5.20;99.90;;;;;;6697957;88;20235;-79
2021/11/24 00:59:11;;;;;;;37.25;14.25;;;5.20;99.90;;;;;;6699098;88;20704;-79
2021/11/24 01:09:12;;;;;;;34.58;14.13;;;5.30;99.90;;;;;;6700418;88;20204;-78
2021/11/24 01:19:13;;;;;;;30.65;13.48;;;5.10;99.90;;;;;;6694505;88;20624;-78
2021/11/24 01:29:13;;;;;;;36.75;14.27;;;5.20;99.90;;;;;;6702186;88;20220;-79
2021/11/24 01:39:14;;;;;;;34.42;14.05;;;5.30;99.90;;;;;;6702172;88;20199;-78
2021/11/24 01:49:14;;;;;;;32.38;13.77;;;5.20;99.90;;;;;;6703288;88;20191;-78
2021/11/24 01:59:15;;;;;;;35.38;14.30;;;5.20;99.90;;;;;;6709751;88;20223;-78
2021/11/24 02:09:17;;;;;;;34.35;13.13;;;5.20;99.90;;;;;;6701072;88;20237;-78
2021/11/24 02:19:18;;;;;;;33.95;13.57;;;5.00;99.90;;;;;;6700774;88;20329;-78
2021/11/24 02:29:19;;;;;;;43.50;16.15;;;5.30;99.90;;;;;;6694944;88;20258;-79
2021/11/24 02:39:20;;;;;;;46.13;17.25;;;5.20;99.90;;;;;;6702017;88;20199;-79
2021/11/24 02:49:20;;;;;;;40.88;15.98;;;5.10;99.90;;;;;;6702923;88;20232;-79
2021/11/24 02:59:21;;;;;;;37.90;15.52;;;5.20;99.90;;;;;;6691749;89;20709;-79
2021/11/24 03:09:21;;;;;;;45.73;17.20;;;5.20;99.90;;;;;;6695361;89;20199;-79
2021/11/24 03:19:22;;;;;;;40.25;16.10;;;5.00;99.90;;;;;;6693642;89;21362;-80
2021/11/24 03:29:23;;;;;;;41.53;15.88;;;5.10;99.90;;;;;;6700545;89;20212;-80
2021/11/24 03:39:23;;;;;;;39.28;15.50;;;5.20;99.90;;;;;;6701616;89;20628;-78
2021/11/24 03:49:24;;;;;;;34.97;14.35;;;5.30;99.90;;;;;;6700693;89;20187;-79
2021/11/24 03:59:24;;;;;;;35.27;14.83;;;5.10;99.90;;;;;;6700006;88;20188;-78
2021/11/24 04:09:25;;;;;;;36.90;14.93;;;5.00;99.90;;;;;;6698238;88;20508;-78
2021/11/24 04:19:25;;;;;;;35.58;14.93;;;5.00;99.90;;;;;;6702242;88;20224;-78
2021/11/24 04:29:26;;;;;;;38.42;14.18;;;5.20;99.90;;;;;;6702296;88;20260;-79
2021/11/24 04:39:27;;;;;;;34.95;13.50;;;5.30;99.90;;;;;;6699736;88;20248;-78
2021/11/24 04:49:27;;;;;;;36.77;14.67;;;5.00;99.90;;;;;;6691446;88;20190;-78
2021/11/24 04:59:28;;;;;;;36.38;14.18;;;5.20;99.90;;;;;;6700782;88;20527;-78
2021/11/24 05:09:28;;;;;;;31.98;12.90;;;5.20;99.90;;;;;;6700957;88;20297;-78
2021/11/24 05:19:32;;;;;;;35.55;15.05;;;5.10;99.90;;;;;;6701081;88;20250;-78
2021/11/24 05:29:32;;;;;;;37.53;13.75;;;5.20;99.90;;;;;;6700260;88;20236;-79
2021/11/24 05:39:35;;;;;;;32.13;14.05;;;5.00;99.90;;;;;;6700516;88;20219;-79
2021/11/24 05:49:37;;;;;;;33.72;13.45;;;5.20;99.90;;;;;;6695818;88;20556;-79
2021/11/24 05:59:37;;;;;;;36.10;13.73;;;5.10;99.90;;;;;;6701106;88;20291;-79
2021/11/24 06:09:38;;;;;;;32.20;12.70;;;5.20;99.90;;;;;;6698486;88;20206;-79
2021/11/24 06:19:39;;;;;;;35.28;13.95;;;5.00;99.90;;;;;;6700699;88;20217;-78
2021/11/24 06:29:39;;;;;;;32.97;12.52;;;4.90;99.90;;;;;;6699524;88;20191;-79
2021/11/24 06:39:40;;;;;;;32.95;13.18;;;4.90;99.90;;;;;;6700671;88;20306;-78
2021/11/24 06:49:43;;;;;;;25.97;11.93;;;5.10;99.90;;;;;;6695425;88;20217;-78
2021/11/24 06:59:43;;;;;;;31.80;12.23;;;5.00;99.90;;;;;;6698642;89;20528;-78
2021/11/24 07:09:44;;;;;;;27.00;12.02;;;5.20;99.90;;;;;;6695278;89;20331;-78
2021/11/24 07:19:44;;;;;;;30.12;12.18;;;5.00;99.90;;;;;;6700868;89;21650;-79
2021/11/24 07:29:45;;;;;;;28.42;11.73;;;5.20;99.90;;;;;;6696354;88;20203;-77
2021/11/24 07:39:45;;;;;;;28.90;11.55;;;5.10;99.90;;;;;;6714445;88;20177;-78
2021/11/24 07:49:46;;;;;;;29.73;12.27;;;5.20;99.90;;;;;;6699884;88;20220;-79
2021/11/24 07:59:48;;;;;;;28.35;11.68;;;5.20;99.90;;;;;;6699762;88;20240;-79
2021/11/24 08:09:50;;;;;;;29.92;12.40;;;5.50;99.90;;;;;;6708206;88;20714;-78
2021/11/24 08:19:51;;;;;;;27.73;11.82;;;5.30;99.90;;;;;;6708371;88;20175;-79
2021/11/24 08:29:51;;;;;;;25.40;11.25;;;5.60;99.90;;;;;;6709839;88;20246;-80
2021/11/24 08:39:52;;;;;;;25.73;11.88;;;5.70;99.90;;;;;;6707532;88;20221;-79
2021/11/24 08:49:52;;;;;;;26.70;11.75;;;5.70;99.90;;;;;;6708440;88;20167;-78
2021/11/24 08:59:53;;;;;;;27.37;11.32;;;6.10;99.90;;;;;;6706383;88;20190;-79
2021/11/24 09:09:53;;;;;;;26.95;11.27;;;6.10;99.90;;;;;;6710336;88;20576;-80
2021/11/24 09:19:54;;;;;;;28.60;11.43;;;6.20;99.90;;;;;;6694411;88;20195;-77
2021/11/24 09:29:56;;;;;;;24.63;10.65;;;6.60;99.90;;;;;;6695981;88;20537;-77
2021/11/24 09:39:57;;;;;;;24.77;11.60;;;6.70;99.90;;;;;;6695465;88;20258;-78
2021/11/24 09:49:59;;;;;;;26.87;11.77;;;6.80;99.90;;;;;;6695023;88;20203;-78
2021/11/24 10:00:00;;;;;;;26.73;11.52;;;7.30;99.90;;;;;;6698007;88;20208;-80
2021/11/24 10:10:00;;;;;;;24.73;10.75;;;7.20;99.90;;;;;;6697593;88;20630;-79
2021/11/24 10:20:07;;;;;;;28.75;11.27;;;7.50;99.90;;;;;;6698438;88;20242;-77
2021/11/24 10:30:08;;;;;;;;;;;7.80;99.90;;;;;;6695621;89;20619;-77
2021/11/24 10:40:09;;;;;;;19.25;8.25;;;8.00;99.90;;;;;;6699687;88;20074;-80
2021/11/24 10:50:19;;;;;;;7.55;2.85;;;8.30;99.90;;;;;;6700310;88;20216;-78
2021/11/24 11:00:22;;;;;;;5.68;2.17;;;7.90;99.90;;;;;;6699593;89;20405;-78
2021/11/24 11:10:27;;;;;;;3.80;1.37;;;7.90;99.90;;;;;;6695298;89;20258;-80
2021/11/24 11:20:33;;;;;;;2.45;1.20;;;7.70;99.90;;;;;;6705068;88;21404;-77
2021/11/24 11:30:35;;;;;;;3.50;1.30;;;7.70;99.90;;;;;;6712814;88;20200;-77
2021/11/24 11:40:38;;;;;;;1.92;0.85;;;7.60;99.90;;;;;;6710096;88;20216;-78
2021/11/24 11:51:13;;;;;;;5.68;2.40;;;7.60;99.90;;;;;;6695794;89;20240;-77
2021/11/24 12:01:20;;;;;;;3.30;1.60;;;7.80;99.90;;;;;;6709629;88;21043;-76
2021/11/24 12:11:20;;;;;;;3.45;1.55;;;7.90;99.90;;;;;;6698901;88;20143;-78
2021/11/24 12:21:22;;;;;;;3.95;1.65;;;7.70;99.90;;;;;;6706550;88;20167;-77
2021/11/24 12:31:23;;;;;;;4.18;1.20;;;7.60;99.90;;;;;;6714867;88;20214;-76
2021/11/24 12:41:26;;;;;;;4.90;2.42;;;7.90;99.90;;;;;;6715763;88;20882;-75
2021/11/24 12:51:31;;;;;;;2.70;1.30;;;7.80;99.90;;;;;;6711963;88;20211;-77
2021/11/24 13:01:45;;;;;;;3.47;1.50;;;7.70;99.90;;;;;;6715631;88;20258;-77
2021/11/24 13:11:56;;;;;;;2.42;1.20;;;7.90;99.90;;;;;;6715947;88;20244;-76
2021/11/24 13:21:57;;;;;;;5.62;1.77;;;7.70;99.90;;;;;;6710419;88;20175;-77
2021/11/24 13:32:15;;;;;;;3.58;1.35;;;7.50;99.90;;;;;;6713926;88;20214;-78
2021/11/24 13:42:16;;;;;;;4.15;1.52;;;7.40;99.90;;;;;;6712229;88;20196;-76
2021/11/24 13:52:21;;;;;;;5.12;1.50;;;9.70;99.90;;;;;;6712352;88;20206;-77
2021/11/24 14:02:24;;;;;;;3.85;1.62;;;10.10;99.90;;;;;;6710137;88;20195;-76
2021/11/24 14:12:30;;;;;;;3.30;1.65;;;9.40;99.90;;;;;;6714179;88;20345;-77
2021/11/24 14:22:42;;;;;;;3.47;1.80;;;8.70;99.90;;;;;;6708654;88;20199;-77
2021/11/24 14:32:45;;;;;;;4.47;1.90;;;7.80;99.90;;;;;;6711045;88;20213;-77
2021/11/24 14:42:46;;;;;;;3.47;1.70;;;7.40;99.90;;;;;;6711909;88;20207;-77
2021/11/24 14:52:48;;;;;;;4.12;1.65;;;6.90;99.90;;;;;;6708579;88;20234;-77
2021/11/24 15:02:49;;;;;;;5.00;1.60;;;7.00;99.90;;;;;;6713944;88;20926;-77
2021/11/24 15:12:50;;;;;;;3.50;1.60;;;7.10;99.90;;;;;;6710926;88;20143;-76
2021/11/24 15:22:50;;;;;;;3.12;1.50;;;7.10;99.90;;;;;;6713684;88;20294;-78
2021/11/24 15:32:51;;;;;;;3.22;1.55;;;6.90;99.90;;;;;;6712940;88;20199;-78
2021/11/24 15:42:51;;;;;;;2.70;1.25;;;7.00;99.90;;;;;;6711549;88;20787;-78
2021/11/24 15:52:52;;;;;;;3.72;1.77;;;6.80;99.90;;;;;;6711518;88;20276;-78
2021/11/24 16:02:53;;;;;;;4.57;1.80;;;6.70;99.90;;;;;;6709564;88;20188;-77
2021/11/24 16:12:54;;;;;;;2.87;1.50;;;6.50;99.90;;;;;;6709068;88;20168;-78
2021/11/24 16:22:55;;;;;;;3.55;1.70;;;6.40;99.90;;;;;;6711907;88;20191;-78
2021/11/24 16:32:56;;;;;;;3.17;1.62;;;6.20;99.90;;;;;;6706354;88;20271;-76
2021/11/24 16:42:56;;;;;;;6.22;3.50;;;6.00;99.90;;;;;;6703873;88;20175;-78
2021/11/24 16:52:57;;;;;;;4.57;2.73;;;5.60;99.90;;;;;;6706267;88;20877;-77
2021/11/24 17:02:57;;;;;;;5.62;2.55;;;5.50;99.90;;;;;;6709003;88;20535;-79
2021/11/24 17:12:59;;;;;;;4.25;2.35;;;5.20;99.90;;;;;;6711307;88;20231;-78
2021/11/24 17:23:08;;;;;;;5.30;2.60;;;5.10;99.90;;;;;;6705618;88;20219;-78
2021/11/24 17:33:09;;;;;;;5.20;3.00;;;4.90;99.90;;;;;;6697717;88;20304;-78
2021/11/24 17:43:10;;;;;;;5.62;2.70;;;4.40;99.90;;;;;;6709105;88;20360;-79
2021/11/24 17:53:10;;;;;;;6.95;4.35;;;4.10;99.90;;;;;;6704968;88;20815;-76
2021/11/24 18:03:11;;;;;;;7.05;4.30;;;4.30;99.90;;;;;;6704763;88;20361;-79
2021/11/24 18:13:12;;;;;;;9.20;4.37;;;3.90;99.90;;;;;;6706885;88;20159;-79
2021/11/24 18:23:15;;;;;;;11.00;4.78;;;3.60;99.90;;;;;;6693303;88;21399;-78
2021/11/24 18:33:15;;;;;;;9.00;4.22;;;3.30;99.90;;;;;;6697194;88;20303;-78
2021/11/24 18:43:16;;;;;;;10.38;6.10;;;3.20;99.90;;;;;;6693349;88;20210;-78
2021/11/24 19:04:18;;;;;;;8.15;4.85;;;3.10;99.90;;;;;;6692266;88;20258;-78
2021/11/24 19:14:19;;;;;;;11.80;5.85;;;2.90;99.90;;;;;;6690637;89;20231;-78
2021/11/24 19:24:22;;;;;;;11.20;5.85;;;3.00;99.90;;;;;;6690010;89;20202;-78
2021/11/24 19:34:22;;;;;;;12.15;6.50;;;2.70;99.90;;;;;;6692379;88;20253;-79
2021/11/24 19:44:23;;;;;;;12.93;6.70;;;2.60;99.90;;;;;;6690184;88;20319;-79
2021/11/24 19:54:23;;;;;;;13.35;6.97;;;2.50;99.90;;;;;;6691496;88;20277;-79
2021/11/24 20:04:24;;;;;;;14.48;8.10;;;3.00;99.90;;;;;;6691822;88;20322;-80
2021/11/24 20:14:29;;;;;;;16.95;8.98;;;2.70;99.90;;;;;;6674858;89;20304;-79
2021/11/24 20:24:30;;;;;;;21.17;10.15;;;2.30;99.90;;;;;;6676282;89;20482;-79
2021/11/24 20:34:31;;;;;;;15.25;8.23;;;2.10;99.90;;;;;;6669236;89;20262;-77
2021/11/24 20:44:31;;;;;;;14.85;8.40;;;2.20;99.90;;;;;;6669772;89;20234;-77
2021/11/24 20:54:32;;;;;;;15.55;7.37;;;2.30;99.90;;;;;;6672620;89;20259;-77
2021/11/24 21:04:33;;;;;;;16.50;8.15;;;2.10;99.90;;;;;;6668147;89;20290;-77
2021/11/24 21:14:34;;;;;;;14.55;8.38;;;1.80;99.90;;;;;;6671022;89;20214;-78
2021/11/24 21:24:36;;;;;;;15.27;6.78;;;1.80;99.90;;;;;;6675214;89;20195;-81
2021/11/24 21:34:36;;;;;;;12.55;6.50;;;1.80;99.90;;;;;;6673216;89;20980;-78
2021/11/24 21:44:38;;;;;;;10.93;6.12;;;1.90;99.90;;;;;;6672193;89;20231;-78
2021/11/24 21:54:39;;;;;;;12.32;7.20;;;2.10;99.90;;;;;;6686981;88;20493;-78
2021/11/24 22:04:40;;;;;;;13.90;7.57;;;2.20;99.90;;;;;;6690019;88;20793;-78
2021/11/24 22:14:41;;;;;;;15.82;7.50;;;2.40;99.90;;;;;;6690636;88;20219;-78
2021/11/24 22:24:41;;;;;;;13.10;6.75;;;2.60;99.90;;;;;;6690474;88;20587;-77
2021/11/24 22:34:42;;;;;;;11.45;6.20;;;2.70;99.90;;;;;;6691438;88;20695;-78
2021/11/24 22:44:43;;;;;;;16.42;7.00;;;3.00;99.90;;;;;;6689850;88;20503;-77
2021/11/24 22:54:43;;;;;;;13.20;6.93;;;2.70;99.90;;;;;;6689625;88;20217;-78
2021/11/24 23:04:44;;;;;;;10.73;6.00;;;2.70;99.90;;;;;;6689074;88;20346;-77
2021/11/24 23:14:45;;;;;;;9.10;5.53;;;3.00;99.90;;;;;;6690378;89;20216;-78
2021/11/24 23:24:45;;;;;;;9.52;5.85;;;2.80;99.90;;;;;;6691029;89;20198;-78
2021/11/24 23:34:46;;;;;;;9.88;5.35;;;3.00;99.90;;;;;;6690779;89;20643;-78
2021/11/24 23:44:46;;;;;;;9.52;5.85;;;3.00;99.90;;;;;;6688991;89;20207;-78
2021/11/24 23:54:47;;;;;;;10.90;6.30;;;2.80;99.90;;;;;;6690531;89;20234;-77
